Time,TemperatureF,DewpointF,PressureIn,WindDirection,WindDirectionDegrees,WindSpeedMPH,WindSpeedGustMPH,Humidity,HourlyPrecipIn,Conditions,Clouds,dailyrainin,SolarRadiationWatts/m^2,SoftwareType,DateUTC
2013-07-28 00:22:00,58.0,47.0,-100.00,ESE,104,2.0,6.0,66,0.00,,,0.00,0.000000,,2013-07-28 08:22:00,
2013-07-28 00:33:00,58.0,47.0,-100.00,ESE,104,2.0,6.0,66,0.00,,,0.00,0.000000,,2013-07-28 08:33:00,
2013-07-28 00:42:00,58.0,47.0,-100.00,ESE,104,2.0,6.0,66,0.00,,,0.00,0.000000,,2013-07-28 08:42:00,
2013-07-28 00:53:00,58.0,47.0,-100.00,ESE,104,2.0,6.0,66,0.00,,,0.00,0.000000,,2013-07-28 08:53:00,
2013-07-28 01:22:00,56.0,47.0,-100.00,ESE,111,1.0,4.0,71,0.00,,,0.00,0.000000,,2013-07-28 09:22:00,
2013-07-28 01:32:00,56.0,47.0,-100.00,ESE,111,1.0,4.0,71,0.00,,,0.00,0.000000,,2013-07-28 09:32:00,
2013-07-28 01:43:00,56.0,47.0,-100.00,ESE,111,1.0,4.0,71,0.00,,,0.00,0.000000,,2013-07-28 09:43:00,
2013-07-28 01:53:00,56.0,47.0,-100.00,ESE,111,1.0,4.0,71,0.00,,,0.00,0.000000,,2013-07-28 09:53:00,
2013-07-28 02:22:00,50.0,47.0,-100.00,NNE,22,0.0,2.0,88,0.00,,,0.00,0.000000,,2013-07-28 10:22:00,
2013-07-28 02:32:00,50.0,47.0,-100.00,NNE,22,0.0,2.0,88,0.00,,,0.00,0.000000,,2013-07-28 10:32:00,
2013-07-28 02:42:00,50.0,47.0,-100.00,NNE,22,0.0,2.0,88,0.00,,,0.00,0.000000,,2013-07-28 10:42:00,
2013-07-28 02:52:00,50.0,47.0,-100.00,NNE,22,0.0,2.0,88,0.00,,,0.00,0.000000,,2013-07-28 10:52:00,
2013-07-28 03:22:00,46.0,43.0,-100.00,South,184,0.0,2.0,90,0.00,,,0.00,0.000000,,2013-07-28 11:22:00,
2013-07-28 03:33:00,46.0,43.0,-100.00,South,184,0.0,2.0,90,0.00,,,0.00,0.000000,,2013-07-28 11:33:00,
2013-07-28 03:43:00,46.0,43.0,-100.00,South,184,0.0,2.0,90,0.00,,,0.00,0.000000,,2013-07-28 11:43:00,
2013-07-28 03:53:00,46.0,43.0,-100.00,South,184,0.0,2.0,90,0.00,,,0.00,0.000000,,2013-07-28 11:53:00,
2013-07-28 04:22:00,44.0,42.0,-100.00,SSE,155,0.0,3.0,92,0.00,,,0.00,0.000000,,2013-07-28 12:22:00,
2013-07-28 04:33:00,44.0,42.0,-100.00,SSE,155,0.0,3.0,92,0.00,,,0.00,0.000000,,2013-07-28 12:33:00,
2013-07-28 04:43:00,44.0,42.0,-100.00,SSE,155,0.0,3.0,92,0.00,,,0.00,0.000000,,2013-07-28 12:43:00,
2013-07-28 04:53:00,44.0,42.0,-100.00,SSE,155,0.0,3.0,92,0.00,,,0.00,0.000000,,2013-07-28 12:53:00,
2013-07-28 05:22:00,42.0,40.0,-100.00,SSW,198,0.0,2.0,93,0.00,,,0.00,0.000000,,2013-07-28 13:22:00,
2013-07-28 05:32:00,42.0,40.0,-100.00,SSW,198,0.0,2.0,93,0.00,,,0.00,0.000000,,2013-07-28 13:32:00,
2013-07-28 05:43:00,42.0,40.0,-100.00,SSW,198,0.0,2.0,93,0.00,,,0.00,0.000000,,2013-07-28 13:43:00,
2013-07-28 06:33:00,42.0,40.0,-100.00,SSW,198,0.0,1.0,93,0.00,,,0.00,14.000000,,2013-07-28 14:33:00,
2013-07-28 06:43:00,42.0,40.0,-100.00,SSW,198,0.0,1.0,93,0.00,,,0.00,14.000000,,2013-07-28 14:43:00,
2013-07-28 06:53:00,42.0,40.0,-100.00,SSW,198,0.0,1.0,93,0.00,,,0.00,14.000000,,2013-07-28 14:53:00,
2013-07-28 07:32:00,51.0,47.0,-100.00,ESE,102,1.0,4.0,85,0.00,,,0.00,93.000000,,2013-07-28 15:32:00,
2013-07-28 07:43:00,51.0,47.0,-100.00,ESE,102,1.0,4.0,85,0.00,,,0.00,93.000000,,2013-07-28 15:43:00,
2013-07-28 07:53:00,51.0,47.0,-100.00,ESE,102,1.0,4.0,85,0.00,,,0.00,93.000000,,2013-07-28 15:53:00,
2013-07-28 08:22:00,59.0,48.0,-100.00,NE,39,2.0,4.0,67,0.00,,,-99.99,252.000000,,2013-07-28 16:22:00,
2013-07-28 08:33:00,59.0,48.0,-100.00,NE,39,2.0,4.0,67,0.00,,,-99.99,252.000000,,2013-07-28 16:33:00,
2013-07-28 08:43:00,59.0,48.0,-100.00,NE,39,2.0,4.0,67,0.00,,,-99.99,252.000000,,2013-07-28 16:43:00,
2013-07-28 08:52:00,59.0,48.0,-100.00,NE,39,2.0,4.0,67,0.00,,,-99.99,252.000000,,2013-07-28 16:52:00,
2013-07-28 09:43:00,63.0,49.0,-100.00,East,99,2.0,5.0,60,0.00,,,0.00,383.000000,,2013-07-28 17:43:00,
2013-07-28 09:53:00,63.0,49.0,-100.00,East,99,2.0,5.0,60,0.00,,,0.00,383.000000,,2013-07-28 17:53:00,
2013-07-28 10:22:00,68.0,51.0,-100.00,East,94,1.0,5.0,54,0.00,,,0.00,513.000000,,2013-07-28 18:22:00,
2013-07-28 10:32:00,68.0,51.0,-100.00,East,94,1.0,5.0,54,0.00,,,0.00,513.000000,,2013-07-28 18:32:00,
2013-07-28 10:43:00,68.0,51.0,-100.00,East,94,1.0,5.0,54,0.00,,,0.00,513.000000,,2013-07-28 18:43:00,
2013-07-28 10:52:00,68.0,51.0,-100.00,East,94,1.0,5.0,54,0.00,,,0.00,513.000000,,2013-07-28 18:52:00,
2013-07-28 11:22:00,71.0,51.0,-100.00,ENE,60,2.0,6.0,49,0.00,,,0.00,630.000000,,2013-07-28 19:22:00,
2013-07-28 11:32:00,71.0,51.0,-100.00,ENE,60,2.0,6.0,49,0.00,,,0.00,630.000000,,2013-07-28 19:32:00,
2013-07-28 11:43:00,71.0,51.0,-100.00,ENE,60,2.0,6.0,49,0.00,,,0.00,630.000000,,2013-07-28 19:43:00,
2013-07-28 11:52:00,71.0,51.0,-100.00,ENE,60,2.0,6.0,49,0.00,,,0.00,630.000000,,2013-07-28 19:52:00,
2013-07-28 12:22:00,74.0,52.0,-100.00,North,2,2.0,6.0,46,0.00,,,0.00,713.000000,,2013-07-28 20:22:00,
2013-07-28 12:33:00,74.0,52.0,-100.00,North,2,2.0,6.0,46,0.00,,,0.00,713.000000,,2013-07-28 20:33:00,
2013-07-28 12:43:00,74.0,52.0,-100.00,North,2,2.0,6.0,46,0.00,,,0.00,713.000000,,2013-07-28 20:43:00,
2013-07-28 12:52:00,74.0,52.0,-100.00,North,2,2.0,6.0,46,0.00,,,0.00,713.000000,,2013-07-28 20:52:00,
2013-07-28 13:33:00,75.0,52.0,-100.00,North,349,4.0,8.0,44,0.00,,,0.00,766.000000,,2013-07-28 21:33:00,
2013-07-28 13:43:00,75.0,52.0,-100.00,North,349,4.0,8.0,44,0.00,,,0.00,766.000000,,2013-07-28 21:43:00,
2013-07-28 13:52:00,75.0,52.0,-100.00,North,349,4.0,8.0,44,0.00,,,0.00,766.000000,,2013-07-28 21:52:00,
2013-07-28 14:43:00,79.0,53.0,-100.00,WSW,243,2.0,7.0,40,0.00,,,0.00,784.000000,,2013-07-28 22:43:00,
2013-07-28 14:52:00,79.0,53.0,-100.00,WSW,243,2.0,7.0,40,0.00,,,0.00,784.000000,,2013-07-28 22:52:00,
2013-07-28 15:22:00,80.0,51.0,-100.00,West,267,4.0,10.0,37,0.00,,,-99.99,771.000000,,2013-07-28 23:22:00,
2013-07-28 15:32:00,80.0,51.0,-100.00,West,267,4.0,10.0,37,0.00,,,-99.99,771.000000,,2013-07-28 23:32:00,
2013-07-28 15:43:00,80.0,51.0,-100.00,West,267,4.0,10.0,37,0.00,,,-99.99,771.000000,,2013-07-28 23:43:00,
2013-07-28 15:53:00,80.0,51.0,-100.00,West,267,4.0,10.0,37,0.00,,,-99.99,771.000000,,2013-07-28 23:53:00,
2013-07-28 16:22:00,81.0,50.0,-100.00,West,281,4.0,9.0,34,0.00,,,0.00,732.000000,,2013-07-29 00:22:00,
2013-07-28 16:32:00,81.0,50.0,-100.00,West,281,4.0,9.0,34,0.00,,,0.00,732.000000,,2013-07-29 00:32:00,
2013-07-28 16:43:00,81.0,50.0,-100.00,West,281,4.0,9.0,34,0.00,,,0.00,732.000000,,2013-07-29 00:43:00,
2013-07-28 16:52:00,81.0,50.0,-100.00,West,281,4.0,9.0,34,0.00,,,0.00,732.000000,,2013-07-29 00:52:00,
2013-07-28 17:25:00,83.0,51.0,-100.00,South,188,2.0,10.0,33,0.00,,,0.00,655.000000,,2013-07-29 01:25:00,
2013-07-28 17:34:00,83.0,51.0,-100.00,South,188,2.0,10.0,33,0.00,,,0.00,655.000000,,2013-07-29 01:34:00,
2013-07-28 17:42:00,83.0,51.0,-100.00,South,188,2.0,10.0,33,0.00,,,0.00,655.000000,,2013-07-29 01:42:00,
2013-07-28 17:54:00,83.0,51.0,-100.00,South,188,2.0,10.0,33,0.00,,,0.00,655.000000,,2013-07-29 01:54:00,
2013-07-28 21:22:00,77.0,48.0,-100.00,East,82,3.0,6.0,36,-99.99,,,0.00,200.000000,,2013-07-29 05:22:00,
2013-07-28 21:32:00,77.0,48.0,-100.00,East,82,3.0,6.0,36,-99.99,,,0.00,200.000000,,2013-07-29 05:32:00,
2013-07-28 21:42:00,77.0,48.0,-100.00,East,82,3.0,6.0,36,-99.99,,,0.00,200.000000,,2013-07-29 05:42:00,
2013-07-28 21:53:00,77.0,48.0,-100.00,East,82,3.0,6.0,36,-99.99,,,0.00,200.000000,,2013-07-29 05:53:00,
2013-07-28 22:22:00,66.0,46.0,-100.00,ESE,121,3.0,7.0,48,-99.99,,,0.00,30.000000,,2013-07-29 06:22:00,
2013-07-28 22:32:00,66.0,46.0,-100.00,ESE,121,3.0,7.0,48,-99.99,,,0.00,30.000000,,2013-07-29 06:32:00,
2013-07-28 22:43:00,66.0,46.0,-100.00,ESE,121,3.0,7.0,48,-99.99,,,0.00,30.000000,,2013-07-29 06:43:00,
2013-07-28 22:52:00,66.0,46.0,-100.00,ESE,121,3.0,7.0,48,-99.99,,,0.00,30.000000,,2013-07-29 06:52:00,
2013-07-28 23:33:00,60.0,44.0,-100.00,ESE,103,1.0,7.0,55,0.00,,,0.00,3.000000,,2013-07-29 07:33:00,
2013-07-28 23:43:00,60.0,44.0,-100.00,ESE,103,1.0,7.0,55,0.00,,,0.00,3.000000,,2013-07-29 07:43:00,
2013-07-28 23:53:00,60.0,44.0,-100.00,ESE,103,1.0,7.0,55,0.00,,,0.00,3.000000,,2013-07-29 07:53:00,